createdAt,value
2019-05-18T00:00:40.108Z,988.81
2019-05-18T00:01:40.093Z,988.81
2019-05-18T00:02:40.083Z,988.79
2019-05-18T00:03:40.116Z,988.78
2019-05-18T00:04:40.081Z,988.80
2019-05-18T00:05:40.050Z,988.79
2019-05-18T00:06:40.039Z,988.78
2019-05-18T00:07:40.050Z,988.80
2019-05-18T00:08:40.015Z,988.82
2019-05-18T00:09:40.007Z,988.83
2019-05-18T00:10:39.995Z,988.80
2019-05-18T00:11:39.982Z,988.77
2019-05-18T00:12:40.000Z,988.80
2019-05-18T00:13:39.959Z,988.77
2019-05-18T00:14:39.948Z,988.79
2019-05-18T00:15:39.937Z,988.78
2019-05-18T00:16:39.927Z,988.76
2019-05-18T00:17:39.939Z,988.73
2019-05-18T00:18:39.903Z,988.73
2019-05-18T00:19:39.919Z,988.72
2019-05-18T00:20:39.880Z,988.73
2019-05-18T00:21:39.871Z,988.71
2019-05-18T00:22:39.874Z,988.69
2019-05-18T00:23:39.847Z,988.73
2019-05-18T00:24:39.859Z,988.71
2019-05-18T00:25:39.851Z,988.69
2019-05-18T00:26:39.814Z,988.71
2019-05-18T00:27:39.802Z,988.65
2019-05-18T00:28:39.795Z,988.68
2019-05-18T00:29:39.807Z,988.67
2019-05-18T00:30:39.770Z,988.61
2019-05-18T00:31:39.758Z,988.64
2019-05-18T00:32:39.745Z,988.63
2019-05-18T00:33:39.733Z,988.63
2019-05-18T00:34:39.746Z,988.61
2019-05-18T00:35:39.711Z,988.56
2019-05-18T00:36:39.699Z,988.54
2019-05-18T00:37:39.688Z,988.56
2019-05-18T00:38:39.679Z,988.59
2019-05-18T00:39:39.697Z,988.58
2019-05-18T00:40:39.654Z,988.60
2019-05-18T00:41:39.642Z,988.61
2019-05-18T00:42:39.675Z,988.62
2019-05-18T00:43:39.621Z,988.63
2019-05-18T00:44:39.638Z,988.61
2019-05-18T00:45:39.595Z,988.56
2019-05-18T00:46:39.584Z,988.55
2019-05-18T00:47:41.897Z,988.55
2019-05-18T00:48:39.564Z,988.53
2019-05-18T00:49:39.574Z,988.54
2019-05-18T00:50:39.550Z,988.56
2019-05-18T00:51:39.530Z,988.51
2019-05-18T00:52:39.517Z,988.57
2019-05-18T00:53:39.505Z,988.60
2019-05-18T00:54:39.519Z,988.59
2019-05-18T00:55:39.481Z,988.55
2019-05-18T00:56:39.471Z,988.54
2019-05-18T00:57:39.502Z,988.49
2019-05-18T00:58:39.448Z,988.48
2019-05-18T00:59:39.437Z,988.53
2019-05-18T01:00:39.427Z,988.49
2019-05-18T01:01:39.413Z,988.50
2019-05-18T01:02:39.425Z,988.46
2019-05-18T01:03:39.390Z,988.49
2019-05-18T01:04:39.381Z,988.51
2019-05-18T01:05:39.368Z,988.48
2019-05-18T01:06:39.356Z,988.50
2019-05-18T01:07:39.380Z,988.52
2019-05-18T01:08:39.333Z,988.52
2019-05-18T01:09:39.346Z,988.50
2019-05-18T01:10:39.314Z,988.49
2019-05-18T01:11:39.299Z,988.50
2019-05-18T01:12:39.286Z,988.48
2019-05-18T01:13:39.275Z,988.46
2019-05-18T01:14:39.283Z,988.46
2019-05-18T01:15:39.254Z,988.48
2019-05-18T01:16:39.242Z,988.42
2019-05-18T01:17:39.232Z,988.44
2019-05-18T01:18:39.218Z,988.46
2019-05-18T01:19:39.231Z,988.51
2019-05-18T01:20:39.195Z,988.55
2019-05-18T01:21:39.185Z,988.49
2019-05-18T01:22:39.197Z,988.50
2019-05-18T01:23:39.161Z,988.53
2019-05-18T01:24:39.150Z,988.45
2019-05-18T01:25:39.161Z,988.45
2019-05-18T01:26:39.128Z,988.45
2019-05-18T01:27:39.140Z,988.48
2019-05-18T01:28:39.104Z,988.48
2019-05-18T01:29:39.093Z,988.53
2019-05-18T01:30:39.081Z,988.46
2019-05-18T01:31:39.106Z,988.53
2019-05-18T01:32:39.058Z,988.49
2019-05-18T01:33:39.048Z,988.48
2019-05-18T01:34:39.036Z,988.51
2019-05-18T01:35:39.025Z,988.49
2019-05-18T01:36:39.037Z,988.50
2019-05-18T01:37:39.005Z,988.50
2019-05-18T01:38:39.018Z,988.49
2019-05-18T01:39:38.978Z,988.50
2019-05-18T01:40:38.967Z,988.50
2019-05-18T01:41:38.956Z,988.56
2019-05-18T01:42:38.950Z,988.58
2019-05-18T01:43:38.960Z,988.57
2019-05-18T01:44:38.925Z,988.59
2019-05-18T01:45:38.911Z,988.63
2019-05-18T01:46:38.899Z,988.63
2019-05-18T01:47:38.904Z,988.59
2019-05-18T01:48:38.878Z,988.61
2019-05-18T01:49:38.920Z,988.63
2019-05-18T01:50:38.857Z,988.61
2019-05-18T01:51:38.844Z,988.58
2019-05-18T01:52:38.858Z,988.63
2019-05-18T01:53:38.822Z,988.59
2019-05-18T01:54:38.811Z,988.60
2019-05-18T01:55:38.803Z,988.63
2019-05-18T01:56:38.790Z,988.59
2019-05-18T01:57:38.808Z,988.59
2019-05-18T01:58:38.767Z,988.61
2019-05-18T01:59:38.757Z,988.63
2019-05-18T02:00:38.748Z,988.59
2019-05-18T02:01:38.734Z,988.61
2019-05-18T02:02:38.752Z,988.61
2019-05-18T02:03:38.713Z,988.60
2019-05-18T02:04:38.702Z,988.57
2019-05-18T02:05:38.724Z,988.62
2019-05-18T02:06:38.680Z,988.64
2019-05-18T02:07:38.692Z,988.62
2019-05-18T02:08:38.659Z,988.62
2019-05-18T02:09:38.666Z,988.64
2019-05-18T02:10:38.635Z,988.58
2019-05-18T02:11:38.626Z,988.62
2019-05-18T02:12:38.675Z,988.56
2019-05-18T02:13:38.601Z,988.58
2019-05-18T02:14:38.614Z,988.55
2019-05-18T02:15:38.580Z,988.57
2019-05-18T02:16:38.602Z,988.54
2019-05-18T02:17:38.560Z,988.53
2019-05-18T02:18:38.566Z,988.55
2019-05-18T02:19:38.537Z,988.55
2019-05-18T02:20:38.525Z,988.53
2019-05-18T02:21:38.515Z,988.54
2019-05-18T02:22:38.536Z,988.48
2019-05-18T02:23:38.491Z,988.53
2019-05-18T02:24:38.480Z,988.54
2019-05-18T02:25:38.471Z,988.52
2019-05-18T02:26:38.460Z,988.56
2019-05-18T02:27:38.468Z,988.56
2019-05-18T02:28:38.442Z,988.56
2019-05-18T02:29:38.432Z,988.55
2019-05-18T02:30:38.439Z,988.55
2019-05-18T02:31:38.409Z,988.59
2019-05-18T02:32:38.421Z,988.57
2019-05-18T02:33:38.385Z,988.57
2019-05-18T02:34:38.374Z,988.57
2019-05-18T02:35:38.367Z,988.56
2019-05-18T02:36:38.352Z,988.54
2019-05-18T02:37:38.359Z,988.55
2019-05-18T02:38:38.327Z,988.54
2019-05-18T02:39:38.319Z,988.55
2019-05-18T02:40:38.330Z,988.52
2019-05-18T02:41:38.302Z,988.54
2019-05-18T02:42:38.285Z,988.54
2019-05-18T02:43:38.274Z,988.53
2019-05-18T02:44:38.263Z,988.50
2019-05-18T02:45:38.270Z,988.49
2019-05-18T02:46:38.242Z,988.47
2019-05-18T02:47:38.230Z,988.43
2019-05-18T02:48:48.614Z,988.49
2019-05-18T02:49:39.206Z,988.43
2019-05-18T02:50:38.222Z,988.44
2019-05-18T02:51:38.185Z,988.41
2019-05-18T02:52:38.177Z,988.41
2019-05-18T02:53:38.163Z,988.44
2019-05-18T02:54:38.153Z,988.38
2019-05-18T02:55:38.171Z,988.41
2019-05-18T02:56:38.141Z,988.38
2019-05-18T02:57:38.128Z,988.35
2019-05-18T02:58:38.114Z,988.32
2019-05-18T02:59:38.102Z,988.32
2019-05-18T03:00:38.119Z,988.34
2019-05-18T03:01:38.073Z,988.30
2019-05-18T03:02:38.062Z,988.32
2019-05-18T03:03:38.054Z,988.31
2019-05-18T03:04:38.041Z,988.31
2019-05-18T03:05:38.056Z,988.32
2019-05-18T03:06:38.019Z,988.35
2019-05-18T03:07:38.009Z,988.31
2019-05-18T03:08:38.019Z,988.29
2019-05-18T03:09:37.986Z,988.34
2019-05-18T03:10:37.973Z,988.33
2019-05-18T03:11:37.961Z,988.33
2019-05-18T03:12:37.950Z,988.38
2019-05-18T03:13:37.964Z,988.35
2019-05-18T03:14:37.930Z,988.40
2019-05-18T03:15:37.923Z,988.36
2019-05-18T03:16:37.931Z,988.36
2019-05-18T03:17:37.893Z,988.35
2019-05-18T03:18:37.911Z,988.37
2019-05-18T03:19:37.872Z,988.35
2019-05-18T03:20:37.860Z,988.33
2019-05-18T03:21:37.856Z,988.37
2019-05-18T03:22:37.865Z,988.36
2019-05-18T03:23:37.833Z,988.36
2019-05-18T03:24:37.815Z,988.37
2019-05-18T03:25:37.808Z,988.38
2019-05-18T03:26:37.793Z,988.39
2019-05-18T03:27:37.815Z,988.38
2019-05-18T03:28:37.772Z,988.41
2019-05-18T03:29:37.759Z,988.41
2019-05-18T03:30:37.747Z,988.47
2019-05-18T03:31:37.741Z,988.41
2019-05-18T03:32:37.780Z,988.44
2019-05-18T03:33:37.717Z,988.44
2019-05-18T03:34:37.703Z,988.43
2019-05-18T03:35:37.739Z,988.41
2019-05-18T03:36:37.687Z,988.42
2019-05-18T03:37:37.667Z,988.36
2019-05-18T03:38:37.673Z,988.33
2019-05-18T03:39:37.651Z,988.38
2019-05-18T03:40:37.641Z,988.34
2019-05-18T03:41:37.633Z,988.33
2019-05-18T03:42:37.613Z,988.28
2019-05-18T03:43:37.624Z,988.32
2019-05-18T03:44:37.612Z,988.34
2019-05-18T03:45:37.579Z,988.37
2019-05-18T03:46:37.567Z,988.32
2019-05-18T03:47:37.580Z,988.38
2019-05-18T03:48:37.544Z,988.37
2019-05-18T03:49:37.558Z,988.35
2019-05-18T03:50:37.547Z,988.37
2019-05-18T03:51:37.511Z,988.34
2019-05-18T03:52:37.498Z,988.37
2019-05-18T03:53:37.489Z,988.39
2019-05-18T03:54:37.500Z,988.38
2019-05-18T03:55:37.470Z,988.42
2019-05-18T03:56:37.471Z,988.40
2019-05-18T03:57:37.446Z,988.43
2019-05-18T03:58:37.433Z,988.44
2019-05-18T03:59:37.444Z,988.47
2019-05-18T04:00:37.414Z,988.43
2019-05-18T04:01:37.410Z,988.48
2019-05-18T04:02:37.389Z,988.49
2019-05-18T04:03:37.377Z,988.47
2019-05-18T04:04:37.391Z,988.49
2019-05-18T04:05:37.357Z,988.51
2019-05-18T04:06:37.398Z,988.55
2019-05-18T04:07:37.333Z,988.53
2019-05-18T04:08:37.322Z,988.56
2019-05-18T04:09:37.313Z,988.56
2019-05-18T04:10:37.303Z,988.58
2019-05-18T04:11:37.313Z,988.56
2019-05-18T04:12:37.310Z,988.56
2019-05-18T04:13:37.267Z,988.56
2019-05-18T04:14:37.261Z,988.51
2019-05-18T04:15:37.356Z,988.56
2019-05-18T04:16:37.257Z,988.52
2019-05-18T04:17:37.222Z,988.52
2019-05-18T04:18:37.212Z,988.53
2019-05-18T04:19:46.138Z,988.48
2019-05-18T04:20:38.188Z,988.49
2019-05-18T04:21:37.206Z,988.50
2019-05-18T04:22:37.170Z,988.48
2019-05-18T04:23:37.189Z,988.50
2019-05-18T04:24:37.150Z,988.47
2019-05-18T04:25:37.137Z,988.46
2019-05-18T04:26:37.126Z,988.47
2019-05-18T04:27:37.133Z,988.48
2019-05-18T04:28:37.103Z,988.49
2019-05-18T04:29:37.092Z,988.48
2019-05-18T04:30:37.084Z,988.52
2019-05-18T04:31:37.086Z,988.52
2019-05-18T04:32:37.058Z,988.54
2019-05-18T04:33:37.047Z,988.51
2019-05-18T04:34:37.059Z,988.53
2019-05-18T04:35:37.024Z,988.57
2019-05-18T04:36:37.038Z,988.54
2019-05-18T04:37:37.004Z,988.54
2019-05-18T04:38:36.993Z,988.52
2019-05-18T04:39:36.987Z,988.52
2019-05-18T04:40:36.994Z,988.49
2019-05-18T04:41:36.957Z,988.49
2019-05-18T04:42:36.949Z,988.48
2019-05-18T04:43:36.971Z,988.46
2019-05-18T04:44:36.926Z,988.42
2019-05-18T04:45:36.920Z,988.40
2019-05-18T04:46:36.906Z,988.41
2019-05-18T04:47:36.916Z,988.38
2019-05-18T04:48:36.883Z,988.44
2019-05-18T04:49:36.870Z,988.47
2019-05-18T04:50:36.872Z,988.49
2019-05-18T04:51:36.874Z,988.45
2019-05-18T04:52:36.844Z,988.42
2019-05-18T04:53:36.843Z,988.47
2019-05-18T04:54:36.814Z,988.49
2019-05-18T04:55:36.834Z,988.49
2019-05-18T04:56:36.815Z,988.49
2019-05-18T04:57:36.783Z,988.52
2019-05-18T04:58:36.792Z,988.56
2019-05-18T04:59:36.756Z,988.53
2019-05-18T05:00:36.746Z,988.54
2019-05-18T05:01:36.766Z,988.55
2019-05-18T05:02:36.722Z,988.58
2019-05-18T05:03:36.709Z,988.49
2019-05-18T05:04:36.698Z,988.53
2019-05-18T05:05:36.713Z,988.51
2019-05-18T05:06:36.676Z,988.54
2019-05-18T05:07:36.686Z,988.57
2019-05-18T05:08:36.652Z,988.59
2019-05-18T05:09:36.641Z,988.56
2019-05-18T05:10:36.653Z,988.54
2019-05-18T05:11:36.617Z,988.56
2019-05-18T05:12:36.609Z,988.57
2019-05-18T05:13:36.597Z,988.57
2019-05-18T05:14:36.584Z,988.55
2019-05-18T05:15:36.604Z,988.56
2019-05-18T05:16:36.598Z,988.51
2019-05-18T05:17:36.580Z,988.51
2019-05-18T05:18:36.539Z,988.53
2019-05-18T05:19:36.529Z,988.53
2019-05-18T05:20:36.516Z,988.51
2019-05-18T05:21:36.508Z,988.58
2019-05-18T05:22:36.512Z,988.54
2019-05-18T05:23:36.483Z,988.52
2019-05-18T05:24:36.473Z,988.54
2019-05-18T05:25:36.478Z,988.49
2019-05-18T05:26:39.306Z,988.47
2019-05-18T05:27:36.438Z,988.48
2019-05-18T05:28:36.427Z,988.49
2019-05-18T05:29:36.439Z,988.44
2019-05-18T05:30:36.405Z,988.46
2019-05-18T05:31:36.394Z,988.48
2019-05-18T05:32:36.382Z,988.44
2019-05-18T05:33:36.373Z,988.43
2019-05-18T05:34:36.383Z,988.41
2019-05-18T05:35:37.811Z,988.37
2019-05-18T05:36:36.337Z,988.37
2019-05-18T05:37:36.327Z,988.40
2019-05-18T05:38:36.315Z,988.39
2019-05-18T05:39:36.327Z,988.42
2019-05-18T05:40:36.292Z,988.41
2019-05-18T05:41:36.280Z,988.44
2019-05-18T05:42:36.270Z,988.44
2019-05-18T05:43:36.282Z,988.44
2019-05-18T05:44:36.248Z,988.46
2019-05-18T05:45:36.241Z,988.47
2019-05-18T05:46:37.421Z,988.48
2019-05-18T05:47:36.213Z,988.49
2019-05-18T05:48:36.228Z,988.48
2019-05-18T05:49:36.191Z,988.44
2019-05-18T05:50:36.791Z,988.48
2019-05-18T05:51:36.169Z,988.46
2019-05-18T05:52:36.156Z,988.46
2019-05-18T05:53:36.168Z,988.45
2019-05-18T05:54:36.134Z,988.48
2019-05-18T05:55:36.184Z,988.46
2019-05-18T05:56:36.111Z,988.51
2019-05-18T05:57:36.115Z,988.53
2019-05-18T05:58:36.094Z,988.52
2019-05-18T05:59:36.158Z,988.51
2019-05-18T06:00:36.071Z,988.50
2019-05-18T06:01:36.060Z,988.48
2019-05-18T06:02:36.043Z,988.55
2019-05-18T06:03:36.052Z,988.53
2019-05-18T06:04:36.023Z,988.51
2019-05-18T06:05:36.010Z,988.48
2019-05-18T06:06:36.000Z,988.52
2019-05-18T06:07:36.010Z,988.49
2019-05-18T06:08:35.976Z,988.50
2019-05-18T06:09:35.967Z,988.48
2019-05-18T06:10:35.953Z,988.48
2019-05-18T06:11:35.944Z,988.54
2019-05-18T06:12:35.959Z,988.56
2019-05-18T06:13:35.927Z,988.52
2019-05-18T06:14:35.913Z,988.55
2019-05-18T06:15:35.901Z,988.53
2019-05-18T06:16:35.906Z,988.50
2019-05-18T06:17:35.875Z,988.50
2019-05-18T06:18:35.866Z,988.49
2019-05-18T06:19:35.875Z,988.46
2019-05-18T06:20:50.108Z,988.51
2019-05-18T06:21:36.832Z,988.48
2019-05-18T06:22:35.845Z,988.48
2019-05-18T06:23:35.815Z,988.43
2019-05-18T06:24:35.818Z,988.47
2019-05-18T06:25:35.797Z,988.46
2019-05-18T06:26:35.795Z,988.51
2019-05-18T06:27:35.763Z,988.52
2019-05-18T06:28:35.771Z,988.53
2019-05-18T06:29:35.737Z,988.52
2019-05-18T06:30:35.727Z,988.47
2019-05-18T06:31:35.727Z,988.51
2019-05-18T06:32:35.746Z,988.49
2019-05-18T06:33:35.729Z,988.51
2019-05-18T06:34:35.680Z,988.53
2019-05-18T06:35:35.671Z,988.55
2019-05-18T06:36:35.683Z,988.46
2019-05-18T06:37:35.649Z,988.48
2019-05-18T06:38:35.663Z,988.47
2019-05-18T06:39:35.655Z,988.50
2019-05-18T06:40:35.631Z,988.49
2019-05-18T06:41:35.602Z,988.47
2019-05-18T06:42:35.591Z,988.47
2019-05-18T06:43:35.603Z,988.50
2019-05-18T06:44:35.570Z,988.54
2019-05-18T06:45:35.560Z,988.52
2019-05-18T06:46:35.547Z,988.51
2019-05-18T06:47:35.535Z,988.50
2019-05-18T06:48:35.554Z,988.53
2019-05-18T06:49:35.513Z,988.52
2019-05-18T06:50:35.501Z,988.51
2019-05-18T06:51:35.489Z,988.53
2019-05-18T06:52:35.479Z,988.51
2019-05-18T06:53:35.493Z,988.51
2019-05-18T06:54:35.456Z,988.49
2019-05-18T06:55:35.444Z,988.53
2019-05-18T06:56:35.457Z,988.50
2019-05-18T06:57:35.423Z,988.51
2019-05-18T06:58:35.442Z,988.48
2019-05-18T06:59:35.400Z,988.47
2019-05-18T07:00:35.388Z,988.48
2019-05-18T07:01:35.379Z,988.47
2019-05-18T07:02:35.366Z,988.50
2019-05-18T07:03:35.384Z,988.48
2019-05-18T07:04:35.346Z,988.48
2019-05-18T07:05:35.331Z,988.46
2019-05-18T07:06:35.320Z,988.52
2019-05-18T07:07:35.309Z,988.51
2019-05-18T07:08:35.316Z,988.53
2019-05-18T07:09:35.287Z,988.51
2019-05-18T07:10:35.310Z,988.42
2019-05-18T07:11:35.264Z,988.43
2019-05-18T07:12:35.279Z,988.42
2019-05-18T07:13:35.260Z,988.41
2019-05-18T07:14:35.230Z,988.46
2019-05-18T07:15:35.218Z,988.42
2019-05-18T07:16:35.224Z,988.39
2019-05-18T07:17:35.199Z,988.37
2019-05-18T07:18:35.195Z,988.37
2019-05-18T07:19:35.175Z,988.38
2019-05-18T07:20:35.186Z,988.35
2019-05-18T07:21:35.173Z,988.36
2019-05-18T07:22:35.141Z,988.33
2019-05-18T07:23:35.129Z,988.34
2019-05-18T07:24:35.117Z,988.33
2019-05-18T07:25:35.106Z,988.33
2019-05-18T07:26:35.121Z,988.35
2019-05-18T07:27:35.087Z,988.36
2019-05-18T07:28:35.074Z,988.37
2019-05-18T07:29:35.061Z,988.36
2019-05-18T07:30:35.073Z,988.37
2019-05-18T07:31:35.062Z,988.32
2019-05-18T07:32:35.029Z,988.32
2019-05-18T07:33:35.024Z,988.32
2019-05-18T07:34:35.013Z,988.34
2019-05-18T07:35:35.018Z,988.29
2019-05-18T07:36:34.984Z,988.24
2019-05-18T07:37:35.002Z,988.30
2019-05-18T07:38:34.961Z,988.25
2019-05-18T07:39:36.149Z,988.28
2019-05-18T07:40:34.967Z,988.30
2019-05-18T07:41:46.399Z,988.27
2019-05-18T07:42:35.919Z,988.29
2019-05-18T07:43:34.908Z,988.23
2019-05-18T07:44:34.894Z,988.24
2019-05-18T07:45:34.919Z,988.23
2019-05-18T07:46:34.873Z,988.19
2019-05-18T07:47:34.861Z,988.22
2019-05-18T07:48:34.849Z,988.20
2019-05-18T07:49:34.863Z,988.22
2019-05-18T07:50:34.826Z,988.20
2019-05-18T07:51:37.314Z,988.19
2019-05-18T07:52:34.803Z,988.16
2019-05-18T07:53:34.791Z,988.13
2019-05-18T07:54:34.804Z,988.14
2019-05-18T07:55:34.796Z,988.15
2019-05-18T07:56:34.775Z,988.13
2019-05-18T07:57:34.747Z,988.16
2019-05-18T07:58:34.766Z,988.16
2019-05-18T07:59:34.726Z,988.20
2019-05-18T08:00:34.744Z,988.18
2019-05-18T08:01:34.703Z,988.17
2019-05-18T08:02:34.698Z,988.19
2019-05-18T08:03:34.680Z,988.20
2019-05-18T08:04:34.691Z,988.15
2019-05-18T08:05:34.657Z,988.16
2019-05-18T08:06:34.653Z,988.14
2019-05-18T08:07:34.655Z,988.15
2019-05-18T08:08:34.622Z,988.14
2019-05-18T08:09:34.688Z,988.17
2019-05-18T08:10:34.630Z,988.17
2019-05-18T08:11:34.588Z,988.19
2019-05-18T08:12:34.585Z,988.18
2019-05-18T08:13:34.567Z,988.20
2019-05-18T08:14:34.557Z,988.18
2019-05-18T08:15:34.592Z,988.20
2019-05-18T08:16:34.533Z,988.21
2019-05-18T08:17:34.547Z,988.17
2019-05-18T08:18:34.516Z,988.12
2019-05-18T08:19:34.524Z,988.18
2019-05-18T08:20:34.493Z,988.17
2019-05-18T08:21:34.478Z,988.20
2019-05-18T08:22:34.467Z,988.20
2019-05-18T08:23:34.455Z,988.21
2019-05-18T08:24:34.467Z,988.21
2019-05-18T08:25:34.436Z,988.17
2019-05-18T08:26:34.441Z,988.22
2019-05-18T08:27:34.425Z,988.14
2019-05-18T08:28:34.424Z,988.17
2019-05-18T08:29:34.391Z,988.11
2019-05-18T08:30:34.377Z,988.14
2019-05-18T08:31:34.366Z,988.14
2019-05-18T08:32:34.368Z,988.16
2019-05-18T08:33:34.385Z,988.12
2019-05-18T08:34:34.338Z,988.10
2019-05-18T08:35:34.319Z,988.09
2019-05-18T08:36:34.307Z,988.06
2019-05-18T08:37:34.296Z,988.12
2019-05-18T08:38:34.315Z,988.09
2019-05-18T08:39:34.276Z,988.12
2019-05-18T08:40:34.292Z,988.14
2019-05-18T08:41:34.254Z,988.15
2019-05-18T08:42:34.244Z,988.13
2019-05-18T08:43:34.231Z,988.10
2019-05-18T08:44:34.231Z,988.11
2019-05-18T08:45:34.234Z,988.09
2019-05-18T08:46:34.199Z,988.15
2019-05-18T08:47:34.188Z,988.14
2019-05-18T08:48:34.175Z,988.13
2019-05-18T08:49:34.166Z,988.08
2019-05-18T08:50:34.176Z,988.07
2019-05-18T08:51:34.140Z,988.08
2019-05-18T08:52:35.168Z,988.14
2019-05-18T08:53:34.120Z,988.11
2019-05-18T08:54:34.121Z,988.12
2019-05-18T08:55:34.096Z,988.13
2019-05-18T08:56:34.085Z,988.11
2019-05-18T08:57:34.074Z,988.11
2019-05-18T08:58:34.089Z,988.12
2019-05-18T08:59:34.053Z,988.10
2019-05-18T09:00:34.041Z,988.13
2019-05-18T09:01:34.057Z,988.08
2019-05-18T09:02:34.051Z,988.08
2019-05-18T09:03:34.035Z,988.11
2019-05-18T09:04:34.001Z,988.10
2019-05-18T09:05:34.010Z,988.05
2019-05-18T09:06:33.977Z,988.06
2019-05-18T09:07:33.964Z,988.02
2019-05-18T09:08:33.955Z,988.04
2019-05-18T09:09:33.947Z,988.07
2019-05-18T09:10:33.957Z,988.06
2019-05-18T09:11:33.920Z,988.09
2019-05-18T09:12:33.910Z,988.06
2019-05-18T09:13:33.898Z,988.10
2019-05-18T09:14:33.890Z,988.11
2019-05-18T09:15:33.899Z,988.07
2019-05-18T09:16:33.866Z,988.07
2019-05-18T09:17:33.856Z,988.05
2019-05-18T09:18:33.866Z,988.06
2019-05-18T09:19:33.833Z,988.01
2019-05-18T09:20:33.963Z,988.04
2019-05-18T09:21:33.834Z,988.06
2019-05-18T09:22:33.817Z,988.06
2019-05-18T09:23:33.791Z,988.06
2019-05-18T09:24:33.785Z,988.03
2019-05-18T09:25:33.792Z,988.03
2019-05-18T09:26:33.755Z,988.05
2019-05-18T09:27:33.745Z,988.02
2019-05-18T09:28:33.734Z,987.98
2019-05-18T09:29:33.728Z,988.01
2019-05-18T09:30:33.742Z,988.02
2019-05-18T09:31:33.701Z,987.98
2019-05-18T09:32:33.714Z,987.98
2019-05-18T09:33:33.678Z,988.00
2019-05-18T09:34:33.669Z,988.00
2019-05-18T09:35:33.703Z,988.03
2019-05-18T09:36:33.668Z,988.01
2019-05-18T09:37:33.639Z,988.02
2019-05-18T09:38:33.707Z,988.08
2019-05-18T09:39:33.617Z,988.01
2019-05-18T09:40:33.607Z,988.01
2019-05-18T09:41:33.618Z,988.01
2019-05-18T09:42:33.580Z,988.00
2019-05-18T09:43:33.571Z,988.00
2019-05-18T09:44:33.557Z,988.02
2019-05-18T09:45:33.545Z,988.04
2019-05-18T09:46:33.553Z,987.98
2019-05-18T09:47:33.523Z,987.95
2019-05-18T09:48:33.537Z,987.96
2019-05-18T09:49:33.502Z,987.96
2019-05-18T09:50:33.495Z,987.97
2019-05-18T09:51:33.502Z,987.95
2019-05-18T09:52:44.818Z,987.93
2019-05-18T09:53:34.482Z,987.94
2019-05-18T09:54:33.446Z,987.90
2019-05-18T09:55:33.434Z,987.91
2019-05-18T09:56:33.423Z,987.86
2019-05-18T09:57:33.414Z,987.85
2019-05-18T09:58:33.424Z,987.83
2019-05-18T09:59:33.390Z,987.82
2019-05-18T10:00:38.554Z,987.84
2019-05-18T10:01:34.393Z,987.84
2019-05-18T10:02:33.356Z,987.77
2019-05-18T10:03:33.414Z,987.77
2019-05-18T10:04:33.336Z,987.78
2019-05-18T10:05:33.325Z,987.75
2019-05-18T10:06:33.328Z,987.77
2019-05-18T10:07:33.341Z,987.76
2019-05-18T10:08:33.292Z,987.74
2019-05-18T10:09:39.402Z,987.77
2019-05-18T10:10:34.267Z,987.76
2019-05-18T10:11:38.530Z,987.72
2019-05-18T10:12:34.282Z,987.70
2019-05-18T10:13:33.243Z,987.65
2019-05-18T10:14:33.224Z,987.68
2019-05-18T10:15:33.213Z,987.68
2019-05-18T10:16:33.207Z,987.66
2019-05-18T10:17:33.191Z,987.68
2019-05-18T10:18:33.213Z,987.63
2019-05-18T10:19:33.168Z,987.68
2019-05-18T10:20:33.166Z,987.63
2019-05-18T10:21:33.152Z,987.63
2019-05-18T10:22:33.139Z,987.60
2019-05-18T10:23:33.146Z,987.61
2019-05-18T10:24:33.113Z,987.60
2019-05-18T10:25:33.104Z,987.62
2019-05-18T10:26:33.092Z,987.62
2019-05-18T10:27:33.083Z,987.57
2019-05-18T10:28:33.122Z,987.61
2019-05-18T10:29:33.058Z,987.63
2019-05-18T10:30:33.049Z,987.62
2019-05-18T10:31:33.037Z,987.58
2019-05-18T10:32:33.026Z,987.58
2019-05-18T10:33:33.042Z,987.57
2019-05-18T10:34:33.007Z,987.55
2019-05-18T10:35:32.993Z,987.61
2019-05-18T10:36:33.087Z,987.58
2019-05-18T10:37:33.004Z,987.54
2019-05-18T10:38:32.961Z,987.62
2019-05-18T10:39:32.952Z,987.53
2019-05-18T10:40:32.940Z,987.58
2019-05-18T10:41:32.927Z,987.52
2019-05-18T10:42:32.958Z,987.59
2019-05-18T10:43:32.950Z,987.56
2019-05-18T10:44:32.911Z,987.62
2019-05-18T10:45:32.884Z,987.63
2019-05-18T10:46:32.874Z,987.61
2019-05-18T10:47:32.888Z,987.63
2019-05-18T10:48:32.850Z,987.60
2019-05-18T10:49:32.842Z,987.62
2019-05-18T10:50:32.852Z,987.59
2019-05-18T10:51:32.846Z,987.58
2019-05-18T10:52:32.808Z,987.55
2019-05-18T10:53:32.797Z,987.53
2019-05-18T10:54:32.798Z,987.50
2019-05-18T10:55:32.777Z,987.50
2019-05-18T10:56:32.780Z,987.49
2019-05-18T10:57:32.753Z,987.47
2019-05-18T10:58:32.778Z,987.45
2019-05-18T10:59:32.730Z,987.45
2019-05-18T11:00:32.720Z,987.45
2019-05-18T11:01:32.709Z,987.44
2019-05-18T11:02:32.751Z,987.44
2019-05-18T11:03:32.687Z,987.44
2019-05-18T11:04:32.682Z,987.40
2019-05-18T11:05:32.665Z,987.42
2019-05-18T11:06:32.676Z,987.39
2019-05-18T11:07:32.643Z,987.37
2019-05-18T11:08:32.631Z,987.36
2019-05-18T11:09:32.643Z,987.35
2019-05-18T11:10:32.609Z,987.35
2019-05-18T11:11:32.599Z,987.35
2019-05-18T11:12:32.602Z,987.34
2019-05-18T11:13:32.576Z,987.31
2019-05-18T11:14:32.566Z,987.34
2019-05-18T11:15:32.686Z,987.32
2019-05-18T11:16:32.543Z,987.35
2019-05-18T11:17:32.554Z,987.30
2019-05-18T11:18:32.521Z,987.35
2019-05-18T11:19:32.511Z,987.33
2019-05-18T11:20:32.530Z,987.32
2019-05-18T11:21:32.490Z,987.33
2019-05-18T11:22:32.501Z,987.34
2019-05-18T11:23:43.335Z,987.30
2019-05-18T11:24:33.455Z,987.29
2019-05-18T11:25:32.449Z,987.34
2019-05-18T11:26:32.438Z,987.32
2019-05-18T11:27:32.458Z,987.28
2019-05-18T11:28:32.411Z,987.30
2019-05-18T11:29:32.409Z,987.31
2019-05-18T11:30:32.416Z,987.34
2019-05-18T11:31:32.409Z,987.29
2019-05-18T11:32:32.368Z,987.28
2019-05-18T11:33:32.360Z,987.33
2019-05-18T11:34:32.350Z,987.28
2019-05-18T11:35:32.361Z,987.37
2019-05-18T11:36:32.326Z,987.33
2019-05-18T11:37:32.339Z,987.30
2019-05-18T11:38:32.302Z,987.28
2019-05-18T11:39:32.292Z,987.23
2019-05-18T11:40:32.284Z,987.25
2019-05-18T11:41:32.270Z,987.25
2019-05-18T11:42:32.291Z,987.27
2019-05-18T11:43:32.249Z,987.24
2019-05-18T11:44:32.242Z,987.27
2019-05-18T11:45:32.227Z,987.27
2019-05-18T11:46:32.231Z,987.30
2019-05-18T11:47:32.204Z,987.28
2019-05-18T11:48:32.212Z,987.26
2019-05-18T11:49:32.184Z,987.28
2019-05-18T11:50:32.172Z,987.28
2019-05-18T11:51:32.198Z,987.26
2019-05-18T11:52:32.165Z,987.24
2019-05-18T11:53:32.139Z,987.26
2019-05-18T11:54:32.129Z,987.21
2019-05-18T11:55:32.117Z,987.22
2019-05-18T11:56:32.130Z,987.22
2019-05-18T11:57:32.095Z,987.17
2019-05-18T11:58:32.097Z,987.18
2019-05-18T11:59:32.073Z,987.18
2019-05-18T12:00:32.061Z,987.19
2019-05-18T12:01:32.075Z,987.15
2019-05-18T12:02:32.042Z,987.17
2019-05-18T12:03:32.030Z,987.14
2019-05-18T12:04:32.017Z,987.10
2019-05-18T12:05:32.007Z,987.11
2019-05-18T12:06:32.020Z,987.10
2019-05-18T12:07:31.984Z,987.12
2019-05-18T12:08:31.974Z,987.12
2019-05-18T12:09:31.974Z,987.11
2019-05-18T12:10:31.991Z,987.12
2019-05-18T12:11:31.941Z,987.12
2019-05-18T12:12:31.933Z,987.10
2019-05-18T12:13:31.917Z,987.10
2019-05-18T12:14:31.907Z,987.09
2019-05-18T12:15:31.923Z,987.08
2019-05-18T12:16:31.885Z,987.12
2019-05-18T12:17:31.872Z,987.12
2019-05-18T12:18:31.863Z,987.07
2019-05-18T12:19:31.861Z,987.09
2019-05-18T12:20:31.863Z,987.07
2019-05-18T12:21:31.829Z,987.07
2019-05-18T12:22:31.841Z,987.03
2019-05-18T12:23:31.830Z,987.06
2019-05-18T12:24:31.803Z,987.10
2019-05-18T12:25:31.808Z,987.01
2019-05-18T12:26:31.777Z,987.08
2019-05-18T12:27:31.789Z,987.03
2019-05-18T12:28:31.752Z,987.02